Time;durP1;ratioP1;P1;durP2;ratioP2;P2;SDS_P1;SDS_P2;PMS_P1;PMS_P2;Temp;Humidity;BMP_temperature;BMP_pressure;BME280_temperature;BME280_humidity;BME280_pressure;Samples;Min_cycle;Max_cycle;Signal;HPM_P1;HPM_P2
2021/12/15 00:01:36;;;;;;;14.20;10.23;;;;;;;-143.84;90.14;44740.59;5089140;28;20479;-72
2021/12/15 00:04:05;;;;;;;18.43;10.90;;;;;;;-143.84;90.83;44628.28;5089300;28;20494;-72
2021/12/15 00:06:33;;;;;;;13.70;9.83;;;;;;;-143.84;90.49;44664.44;5089467;28;20448;-73
2021/12/15 00:09:05;;;;;;;13.93;10.13;;;;;;;-143.84;90.53;44679.69;5089256;28;20439;-73
2021/12/15 00:11:37;;;;;;;19.93;12.30;;;;;;;-143.84;90.59;44653.03;5089340;28;20442;-72
2021/12/15 00:14:06;;;;;;;16.00;10.70;;;;;;;-143.84;91.28;44519.75;5088930;28;20476;-73
2021/12/15 00:16:33;;;;;;;18.27;10.97;;;;;;;-143.84;91.17;44529.28;5089232;28;20452;-73
2021/12/15 00:19:02;;;;;;;16.27;9.83;;;;;;;-143.84;90.72;44590.19;5089830;28;20433;-73
2021/12/15 00:21:30;;;;;;;13.53;9.00;;;;;;;-143.84;90.55;44658.75;5092809;28;20996;-73
2021/12/15 00:23:58;;;;;;;16.67;10.03;;;;;;;-143.84;90.21;44731.09;5092668;28;20558;-73
2021/12/15 00:26:26;;;;;;;16.70;9.77;;;;;;;-143.84;90.71;44546.41;5092988;28;20440;-72
2021/12/15 00:28:53;;;;;;;18.10;9.80;;;;;;;-143.84;90.91;44498.81;5092634;28;20440;-73
2021/12/15 00:31:23;;;;;;;12.60;9.50;;;;;;;-143.84;90.51;44540.69;5092803;28;20515;-73
2021/12/15 00:33:52;;;;;;;18.83;10.70;;;;;;;-143.84;90.74;44521.66;5092683;28;20965;-73
2021/12/15 00:36:20;;;;;;;17.03;10.73;;;;;;;-143.84;91.02;44542.59;5092614;28;20443;-73
2021/12/15 00:38:48;;;;;;;14.63;10.33;;;;;;;-143.84;90.68;44586.38;5092813;28;20531;-73
2021/12/15 00:41:15;;;;;;;18.10;11.97;;;;;;;-143.84;91.32;44523.56;5092452;28;20993;-72
2021/12/15 00:43:43;;;;;;;15.73;10.80;;;;;;;-143.84;91.27;44540.69;5092802;28;20524;-72
2021/12/15 00:46:10;;;;;;;17.13;10.97;;;;;;;-143.84;90.61;44500.72;5092577;28;20448;-73
2021/12/15 00:48:38;;;;;;;16.47;10.83;;;;;;;-143.84;91.05;44529.28;5092716;28;20591;-73
2021/12/15 00:51:05;;;;;;;21.40;12.00;;;;;;;-143.84;91.14;44506.44;5092408;28;20428;-72
2021/12/15 00:53:35;;;;;;;22.07;13.13;;;;;;;-143.84;90.86;44485.47;5092296;28;20954;-73
2021/12/15 00:56:02;;;;;;;16.23;10.83;;;;;;;-143.84;91.01;44504.53;5091866;28;20444;-72
2021/12/15 00:58:29;;;;;;;20.67;12.73;;;;;;;-143.84;91.36;44550.22;5092099;28;20907;-72
2021/12/15 01:01:01;;;;;;;17.37;12.43;;;;;;;-143.84;91.51;44460.72;5090952;28;20471;-73
2021/12/15 01:03:30;;;;;;;18.00;11.60;;;;;;;-143.84;91.05;44496.91;5091400;28;20449;-72
2021/12/15 01:06:04;;;;;;;18.40;10.23;;;;;;;-143.84;90.69;44529.28;5091909;28;20444;-73
2021/12/15 01:08:32;;;;;;;16.20;10.67;;;;;;;-143.84;90.61;44580.69;5091213;28;20789;-72
2021/12/15 01:11:10;;;;;;;19.40;12.70;;;;;;;-143.84;90.85;44544.50;5091613;28;20502;-73
2021/12/15 01:22:01;;;;;;;20.07;10.30;;;;;;;-143.84;91.46;44340.78;5071846;28;20506;-72
2021/12/15 01:24:28;;;;;;;17.83;10.97;;;;;;;-143.84;91.48;44298.91;5084545;28;20466;-72
2021/12/15 01:26:57;;;;;;;16.17;9.93;;;;;;;-143.84;91.73;44224.66;5091811;28;21038;-73
2021/12/15 01:29:25;;;;;;;18.90;11.40;;;;;;;-143.84;91.35;44264.66;5082918;28;20816;-73
2021/12/15 01:31:52;;;;;;;15.90;10.67;;;;;;;-143.84;91.40;44306.53;5091038;28;20448;-73
2021/12/15 01:34:20;;;;;;;18.23;11.50;;;;;;;-143.84;91.66;44306.53;5091501;28;20429;-73
2021/12/15 01:36:47;;;;;;;21.60;12.10;;;;;;;-143.84;91.56;44268.44;5091243;28;21252;-73
2021/12/15 01:39:15;;;;;;;19.90;11.57;;;;;;;-143.84;92.19;44243.69;5091516;28;20436;-73
2021/12/15 01:41:43;;;;;;;21.80;11.37;;;;;;;-143.84;91.74;44205.63;5091288;28;21193;-73
2021/12/15 01:47:01;;;;;;;17.60;11.50;;;;;;;-143.84;91.87;44304.63;5091345;28;20485;-73
2021/12/15 01:49:37;;;;;;;15.33;10.70;;;;;;;-143.84;91.47;44268.44;5091031;28;20440;-73
2021/12/15 01:52:13;;;;;;;15.17;11.27;;;;;;;-143.84;92.00;44215.16;5091273;28;20445;-73
2021/12/15 01:54:42;;;;;;;19.70;12.20;;;;;;;-143.84;92.20;44146.63;5091234;28;20447;-73
2021/12/15 01:57:11;;;;;;;20.33;12.07;;;;;;;-143.84;92.11;44158.03;5091390;28;20445;-73
2021/12/15 01:59:41;;;;;;;23.33;13.60;;;;;;;-143.84;91.59;44190.41;5091234;28;20963;-72
2021/12/15 02:02:08;;;;;;;17.30;13.37;;;;;;;-143.84;92.54;44163.75;5091288;28;20854;-72
2021/12/15 02:04:36;;;;;;;18.50;12.43;;;;;;;-143.84;92.29;44123.78;5091212;28;20440;-73
2021/12/15 02:07:06;;;;;;;21.37;12.13;;;;;;;-143.84;92.54;44040.00;5090587;28;20448;-73
2021/12/15 02:10:01;;;;;;;21.40;13.00;;;;;;;-143.84;92.65;44081.88;5090568;28;20984;-73
2021/12/15 02:12:34;;;;;;;21.23;12.57;;;;;;;-143.84;92.93;44064.75;5090623;28;20513;-72
2021/12/15 02:15:09;;;;;;;24.03;13.93;;;;;;;-143.84;92.49;44028.59;5090532;28;21005;-73
2021/12/15 02:17:37;;;;;;;28.77;12.13;;;;;;;-143.84;92.43;44066.66;5089913;28;20450;-71
2021/12/15 02:20:06;;;;;;;17.80;11.27;;;;;;;-143.84;93.23;44007.66;5089736;28;20475;-73
2021/12/15 02:22:35;;;;;;;23.57;12.83;;;;;;;-143.84;92.69;44057.16;5090145;28;20515;-75
2021/12/15 02:25:06;;;;;;;22.33;12.73;;;;;;;-143.84;92.66;44036.22;5090118;28;20446;-75
2021/12/15 02:27:35;;;;;;;26.97;13.83;;;;;;;-143.84;92.60;44032.41;5089999;28;20448;-71
2021/12/15 02:30:18;;;;;;;20.70;11.73;;;;;;;-143.84;92.43;44070.47;5089837;28;20437;-71
2021/12/15 02:32:58;;;;;;;19.30;11.57;;;;;;;-143.84;92.62;44064.75;5088546;28;20510;-71
2021/12/15 02:38:11;;;;;;;19.30;12.00;;;;;;;-143.84;92.66;44005.75;5089783;28;20948;-72
2021/12/15 02:40:39;;;;;;;20.07;12.13;;;;;;;-143.84;93.25;43990.53;5089813;28;20441;-71
2021/12/15 02:43:07;;;;;;;18.10;12.57;;;;;;;-143.84;92.80;43944.84;5088691;28;20476;-71
2021/12/15 02:45:37;;;;;;;16.00;11.87;;;;;;;-143.84;92.60;44020.97;5089555;28;20444;-71
2021/12/15 02:48:04;;;;;;;17.20;12.50;;;;;;;-143.84;92.93;44055.25;5089447;28;20445;-71
2021/12/15 02:50:33;;;;;;;16.57;11.20;;;;;;;-143.84;92.28;44078.09;5089772;28;20432;-71
2021/12/15 02:53:01;;;;;;;15.90;10.60;;;;;;;-143.84;92.75;44060.94;5089746;28;20979;-71
2021/12/15 02:55:30;;;;;;;29.80;12.00;;;;;;;-143.84;93.28;44000.03;5089520;28;20949;-71
2021/12/15 02:57:58;;;;;;;17.87;11.63;;;;;;;-143.84;92.96;43969.59;5089614;28;20506;-71
2021/12/15 03:00:32;;;;;;;17.40;11.47;;;;;;;-143.84;93.16;43998.13;5089382;28;20447;-71
2021/12/15 03:03:34;;;;;;;17.73;11.20;;;;;;;-143.84;92.33;44049.53;5089111;28;20487;-71
2021/12/15 03:06:06;;;;;;;15.37;9.60;;;;;;;-143.84;92.73;44041.91;5089284;28;20873;-74
2021/12/15 03:08:50;;;;;;;18.17;10.77;;;;;;;-143.84;92.39;44127.56;5089121;28;20453;-75
2021/12/15 03:16:51;;;;;;;15.97;9.93;;;;;;;-143.84;92.92;44043.81;5089376;28;20423;-74
2021/12/15 03:19:19;;;;;;;14.70;10.07;;;;;;;-143.84;93.14;44009.56;5089226;28;20440;-75
2021/12/15 03:21:47;;;;;;;13.00;9.20;;;;;;;-143.84;92.54;44140.91;5089312;28;20484;-74
2021/12/15 03:24:18;;;;;;;14.93;9.10;;;;;;;-143.84;92.30;44097.13;5089057;28;20456;-74
2021/12/15 03:26:55;;;;;;;16.27;10.30;;;;;;;-143.84;92.01;44156.13;5089007;28;20472;-75
2021/12/15 03:35:21;;;;;;;14.40;9.80;;;;;;;-143.84;92.88;44057.16;5034310;28;20453;-74
2021/12/15 03:37:54;;;;;;;13.57;9.27;;;;;;;-143.84;92.85;44032.41;5046422;28;20434;-74
2021/12/15 03:40:25;;;;;;;16.60;8.83;;;;;;;-143.84;92.61;44047.63;5070584;28;20449;-75
2021/12/15 03:42:57;;;;;;;13.43;9.50;;;;;;;-143.84;92.68;44055.25;5089024;28;20510;-75
2021/12/15 03:45:33;;;;;;;16.13;10.37;;;;;;;-143.84;92.46;44066.66;5088928;28;20969;-75
2021/12/15 03:48:03;;;;;;;11.80;8.27;;;;;;;-143.84;92.60;44007.66;5089014;28;20444;-75
2021/12/15 03:50:31;;;;;;;14.13;9.00;;;;;;;-143.84;93.00;44022.88;5089058;28;20455;-75
2021/12/15 03:52:59;;;;;;;14.20;9.80;;;;;;;-143.84;92.24;44032.41;5089299;28;20458;-75
2021/12/15 03:55:29;;;;;;;13.53;9.40;;;;;;;-143.84;92.96;44049.53;5091941;28;20443;-75
2021/12/15 03:57:59;;;;;;;13.70;9.83;;;;;;;-143.84;92.66;44083.78;5093082;28;20440;-75
2021/12/15 04:00:28;;;;;;;12.17;9.10;;;;;;;-143.84;93.20;44019.06;5092940;28;20448;-75
2021/12/15 04:02:56;;;;;;;12.20;8.80;;;;;;;-143.84;92.82;44032.41;5093166;28;20516;-75
2021/12/15 04:05:23;;;;;;;11.93;9.23;;;;;;;-143.84;92.47;44053.34;5093030;28;20440;-75
2021/12/15 04:07:52;;;;;;;12.60;8.80;;;;;;;-143.84;92.56;44053.34;5092823;28;20437;-75
2021/12/15 04:10:22;;;;;;;14.67;10.07;;;;;;;-143.84;93.14;44053.34;5092984;28;20922;-75
2021/12/15 04:12:50;;;;;;;14.63;10.13;;;;;;;-143.84;92.96;44055.25;5093033;28;20434;-75
2021/12/15 04:15:26;;;;;;;12.17;9.47;;;;;;;-143.84;92.55;44045.72;5092687;28;20490;-75
2021/12/15 04:17:55;;;;;;;12.37;9.60;;;;;;;-143.84;92.74;44040.00;5092759;28;20950;-75
2021/12/15 04:20:24;;;;;;;15.17;10.50;;;;;;;-143.84;92.38;44036.22;5092603;28;20436;-75
2021/12/15 04:22:52;;;;;;;12.33;8.57;;;;;;;-143.84;92.31;44081.88;5092630;28;20483;-75
2021/12/15 04:25:23;;;;;;;14.03;9.43;;;;;;;-143.84;92.87;44036.22;5092534;28;20462;-75
2021/12/15 04:27:56;;;;;;;14.30;8.67;;;;;;;-143.84;92.96;44049.53;5092787;28;20446;-75
2021/12/15 04:30:26;;;;;;;20.10;9.70;;;;;;;-143.84;93.14;44020.97;5092336;28;20818;-75
2021/12/15 04:32:55;;;;;;;12.20;9.33;;;;;;;-143.84;92.71;43992.41;5092572;28;20543;-73
2021/12/15 04:35:22;;;;;;;14.67;9.40;;;;;;;-143.84;92.86;44053.34;5093013;28;20451;-73
2021/12/15 04:37:52;;;;;;;12.23;8.33;;;;;;;-143.84;93.04;44041.91;5093194;28;20444;-73
2021/12/15 04:40:22;;;;;;;11.77;8.73;;;;;;;-143.84;93.16;44057.16;5093430;28;20433;-73
2021/12/15 04:42:51;;;;;;;11.17;8.50;;;;;;;-143.84;93.14;44000.03;5093050;28;20882;-72
2021/12/15 04:45:21;;;;;;;11.77;8.50;;;;;;;-143.84;92.84;44001.94;5079625;28;20491;-75
2021/12/15 04:47:52;;;;;;;14.47;8.87;;;;;;;-143.84;92.53;43998.13;5073858;28;21001;-75
2021/12/15 04:50:21;;;;;;;15.00;8.70;;;;;;;-143.84;92.48;44009.56;5073338;28;20954;-75
2021/12/15 04:52:49;;;;;;;12.90;9.27;;;;;;;-143.84;93.84;43910.56;5073211;28;20452;-76
2021/12/15 04:55:19;;;;;;;11.60;9.50;;;;;;;-143.84;93.54;43982.91;5073852;28;20795;-75
2021/12/15 04:57:46;;;;;;;11.53;8.80;;;;;;;-143.84;92.92;43969.59;5073443;28;20436;-75
2021/12/15 05:00:18;;;;;;;10.57;8.63;;;;;;;-143.84;92.99;43979.09;5078810;28;20466;-75
2021/12/15 05:02:46;;;;;;;14.20;9.10;;;;;;;-143.84;93.03;44043.81;5094343;28;20476;-75
2021/12/15 05:05:15;;;;;;;13.50;8.80;;;;;;;-143.84;92.82;44015.25;5090755;28;20445;-75
2021/12/15 05:07:42;;;;;;;18.67;9.33;;;;;;;-143.84;92.74;43992.41;5090408;28;20440;-73
2021/12/15 05:10:11;;;;;;;12.40;9.50;;;;;;;-143.84;93.03;43998.13;5092989;28;20448;-73
2021/12/15 05:12:39;;;;;;;13.87;9.60;;;;;;;-143.84;92.54;44026.69;5093874;28;20444;-74
2021/12/15 05:15:08;;;;;;;12.50;8.00;;;;;;;-143.84;93.16;43967.69;5092969;28;20488;-74
2021/12/15 05:17:35;;;;;;;12.10;8.33;;;;;;;-143.84;92.80;43990.53;5093409;28;20452;-73
2021/12/15 05:20:05;;;;;;;10.30;8.10;;;;;;;-143.84;92.53;44001.94;5092549;28;20440;-74
2021/12/15 05:22:35;;;;;;;11.97;8.00;;;;;;;-143.84;92.96;43975.28;5092684;28;21068;-74
2021/12/15 05:25:05;;;;;;;11.47;8.63;;;;;;;-143.84;93.28;43969.59;5092619;28;20809;-74
2021/12/15 05:27:33;;;;;;;13.23;8.90;;;;;;;-143.84;93.12;43963.88;5092851;28;20516;-74
2021/12/15 05:30:00;;;;;;;9.47;7.60;;;;;;;-143.84;93.48;43958.16;5091990;28;20428;-73
2021/12/15 05:32:27;;;;;;;9.57;8.27;;;;;;;-143.84;93.06;43933.41;5083997;28;20442;-73
2021/12/15 05:34:59;;;;;;;12.60;9.03;;;;;;;-143.84;92.74;43954.34;5075986;28;20461;-74
2021/12/15 05:37:28;;;;;;;11.90;8.27;;;;;;;-143.84;93.37;44013.38;5092569;28;20479;-74
2021/12/15 05:39:58;;;;;;;14.50;8.63;;;;;;;-143.84;93.00;43998.13;5092441;28;20431;-74
2021/12/15 05:42:27;;;;;;;11.30;7.73;;;;;;;-143.84;92.85;43965.78;5092364;28;20488;-73
2021/12/15 05:44:55;;;;;;;8.90;7.77;;;;;;;-143.84;92.71;43979.09;5091599;28;20435;-73
2021/12/15 05:47:24;;;;;;;13.17;9.50;;;;;;;-143.84;92.68;44022.88;5091320;28;20515;-73
2021/12/15 05:49:52;;;;;;;12.70;8.33;;;;;;;-143.84;92.94;43982.91;5091705;28;20490;-73
2021/12/15 05:52:20;;;;;;;13.17;10.43;;;;;;;-143.84;93.31;43952.44;5091948;28;20821;-73
2021/12/15 05:54:48;;;;;;;12.30;9.30;;;;;;;-143.84;92.95;43990.53;5091878;28;20436;-73
2021/12/15 05:57:17;;;;;;;14.13;10.10;;;;;;;-143.84;92.78;43969.59;5090589;28;20469;-73
2021/12/15 05:59:45;;;;;;;10.80;8.60;;;;;;;-143.84;93.41;43977.19;5090735;28;20801;-73
2021/12/15 06:02:12;;;;;;;11.83;8.77;;;;;;;-143.84;93.63;43963.88;5090192;28;20425;-73
2021/12/15 06:04:39;;;;;;;11.50;7.83;;;;;;;-143.84;93.03;43942.94;5091081;28;20942;-73
2021/12/15 06:07:07;;;;;;;11.00;8.70;;;;;;;-143.84;93.05;43994.31;5091443;28;20425;-73
2021/12/15 06:09:34;;;;;;;12.47;8.47;;;;;;;-143.84;92.79;44017.16;5087161;28;20456;-73
2021/12/15 06:12:03;;;;;;;9.90;8.03;;;;;;;-143.84;92.57;44007.66;5084840;28;20519;-73
2021/12/15 06:14:33;;;;;;;14.93;9.57;;;;;;;-143.84;92.40;44034.31;5090276;28;20932;-73
2021/12/15 06:17:06;;;;;;;10.87;8.93;;;;;;;-143.84;92.36;44080.00;5090530;28;20458;-73
2021/12/15 06:19:33;;;;;;;9.60;8.27;;;;;;;-143.84;92.02;44051.44;5090827;28;20449;-73
2021/12/15 06:22:02;;;;;;;11.87;8.63;;;;;;;-143.84;92.68;44059.03;5091193;28;20437;-73
2021/12/15 06:24:29;;;;;;;12.33;9.30;;;;;;;-143.84;92.06;44140.91;5087355;28;20836;-73
2021/12/15 06:27:03;;;;;;;11.07;8.23;;;;;;;-143.84;91.69;44171.38;5079728;28;20454;-73
2021/12/15 06:29:33;;;;;;;10.23;7.80;;;;;;;-143.84;91.78;44104.72;5078556;28;20453;-73
2021/12/15 06:32:00;;;;;;;12.07;8.67;;;;;;;-143.84;92.12;44129.47;5070729;28;20450;-73
2021/12/15 06:34:28;;;;;;;11.40;9.03;;;;;;;-143.84;92.58;44074.28;5070372;28;20433;-73
2021/12/15 06:36:56;;;;;;;9.13;7.97;;;;;;;-143.84;92.26;44093.31;5070464;28;20460;-73
2021/12/15 06:39:24;;;;;;;15.97;8.67;;;;;;;-143.84;92.26;44093.31;5070248;28;20446;-73
2021/12/15 06:41:52;;;;;;;11.10;7.60;;;;;;;-143.84;92.29;44093.31;5070352;28;20442;-73
2021/12/15 06:44:19;;;;;;;13.43;8.10;;;;;;;-143.84;92.26;44068.56;5070371;28;20842;-73
2021/12/15 06:58:15;;;;;;;9.37;8.03;;;;;;;-143.84;91.07;44245.59;5090522;28;20536;-73
2021/12/15 07:00:46;;;;;;;13.43;7.40;;;;;;;-143.84;91.10;44336.97;5079642;28;20461;-73
2021/12/15 07:03:17;;;;;;;10.73;8.30;;;;;;;-143.84;90.83;44371.25;5070130;28;20486;-73
2021/12/15 07:05:46;;;;;;;10.70;8.17;;;;;;;-143.84;91.21;44272.25;5069889;28;20439;-73
2021/12/15 07:08:14;;;;;;;10.10;8.00;;;;;;;-143.84;91.23;44342.69;5070151;28;20433;-73
2021/12/15 07:10:44;;;;;;;10.17;7.90;;;;;;;-143.84;91.00;44226.56;5070195;28;20456;-73
2021/12/15 07:13:13;;;;;;;11.77;8.20;;;;;;;-143.84;90.65;44430.28;5069944;28;20428;-73
2021/12/15 07:15:41;;;;;;;10.03;7.70;;;;;;;-143.84;90.56;44542.59;5069621;28;20482;-73
2021/12/15 07:18:11;;;;;;;10.73;7.87;;;;;;;-143.84;90.95;44472.16;5070099;28;20463;-73
2021/12/15 07:20:45;;;;;;;14.33;9.47;;;;;;;-143.84;90.95;44468.34;5069802;28;20449;-73
2021/12/15 07:23:15;;;;;;;12.40;9.63;;;;;;;-143.84;90.92;44474.06;5069832;28;20466;-73
2021/12/15 07:25:46;;;;;;;15.60;8.83;;;;;;;-143.84;90.67;44544.50;5083943;28;20446;-73
2021/12/15 07:28:14;;;;;;;9.33;7.73;;;;;;;-143.84;90.15;44534.97;5089432;28;20433;-73
2021/12/15 07:30:42;;;;;;;10.47;8.43;;;;;;;-143.84;90.44;44515.94;5090138;28;20433;-73
2021/12/15 07:33:10;;;;;;;10.70;7.37;;;;;;;-143.84;90.35;44614.94;5089852;28;20447;-73
2021/12/15 07:35:41;;;;;;;12.43;8.63;;;;;;;-143.84;90.16;44679.69;5089882;28;20456;-73
2021/12/15 07:38:09;;;;;;;9.43;8.43;;;;;;;-143.84;90.10;44618.75;5088966;28;20467;-73
2021/12/15 07:40:37;;;;;;;9.80;8.37;;;;;;;-143.84;89.96;44656.84;5088805;28;20440;-74
2021/12/15 07:43:09;;;;;;;8.77;7.87;;;;;;;-143.84;89.63;44750.13;5084397;28;20480;-73
2021/12/15 07:45:40;;;;;;;11.60;7.30;;;;;;;-143.84;88.81;44803.44;5085600;28;20469;-73
2021/12/15 07:48:10;;;;;;;8.80;7.50;;;;;;;-143.84;88.49;44839.63;5084738;28;20461;-73
2021/12/15 07:50:41;;;;;;;10.60;7.83;;;;;;;-143.84;88.04;44931.00;5084755;28;20454;-73
2021/12/15 07:53:08;;;;;;;9.80;7.47;;;;;;;-143.84;87.67;44980.53;5085531;28;20463;-73
2021/12/15 07:55:37;;;;;;;10.20;8.67;;;;;;;-143.84;86.62;45028.13;5086266;28;20453;-73
2021/12/15 07:58:06;;;;;;;13.63;7.03;;;;;;;-143.84;87.13;45028.13;5086879;28;20840;-74
2021/12/15 08:00:35;;;;;;;9.13;6.57;;;;;;;-143.84;86.96;45026.22;5089180;28;20448;-74
2021/12/15 08:03:03;;;;;;;9.57;7.70;;;;;;;-143.84;87.16;44999.56;5088776;28;20494;-74
2021/12/15 08:05:30;;;;;;;10.93;7.63;;;;;;;-143.84;87.95;44991.94;5089173;28;20436;-73
2021/12/15 08:07:59;;;;;;;9.67;7.83;;;;;;;-143.84;87.19;45016.69;5089493;28;21006;-73
2021/12/15 08:10:27;;;;;;;9.47;6.90;;;;;;;-143.84;86.79;45014.78;5089901;28;20456;-73
2021/12/15 08:12:54;;;;;;;10.10;7.33;;;;;;;-143.84;86.96;45028.13;5088817;28;21338;-73
2021/12/15 08:15:21;;;;;;;7.73;6.50;;;;;;;-143.84;86.47;45043.34;5088855;28;20483;-74
2021/12/15 08:17:51;;;;;;;12.43;7.13;;;;;;;-143.84;87.39;45049.06;5088983;28;20834;-74
2021/12/15 08:20:21;;;;;;;7.60;6.57;;;;;;;-143.84;87.17;45043.34;5088565;28;20979;-73
2021/12/15 08:22:48;;;;;;;11.33;7.20;;;;;;;-143.84;87.28;45026.22;5088614;28;20435;-74
2021/12/15 08:25:20;;;;;;;9.23;7.90;;;;;;;-143.84;87.19;44995.75;5088525;28;20432;-73
2021/12/15 08:27:48;;;;;;;9.93;7.40;;;;;;;-143.84;87.39;45018.59;5087967;28;20527;-74
2021/12/15 08:30:20;;;;;;;12.57;7.60;;;;;;;-143.84;87.53;45020.50;5088565;28;21108;-73
2021/12/15 08:32:49;;;;;;;13.80;7.97;;;;;;;-143.84;87.81;44984.31;5088315;28;20438;-73
2021/12/15 08:35:17;;;;;;;10.57;7.57;;;;;;;-143.84;87.42;44961.47;5085548;28;20467;-73
2021/12/15 08:37:45;;;;;;;10.57;7.57;;;;;;;-143.84;87.44;44974.81;5084673;28;20502;-74
2021/12/15 08:40:15;;;;;;;9.67;7.83;;;;;;;-143.84;87.95;44931.00;5084869;28;20494;-74
2021/12/15 08:42:44;;;;;;;11.50;7.97;;;;;;;-143.84;88.72;44898.66;5087002;28;20520;-74
2021/12/15 08:45:12;;;;;;;10.10;7.77;;;;;;;-143.84;88.79;44873.88;5087182;28;21619;-74
2021/12/15 08:47:39;;;;;;;8.73;7.80;;;;;;;-143.84;88.57;44891.03;5087615;28;20454;-73
2021/12/15 08:50:11;;;;;;;12.70;8.20;;;;;;;-143.84;88.64;44858.66;5087347;28;20568;-73
2021/12/15 08:52:38;;;;;;;11.63;8.83;;;;;;;-143.84;88.52;44917.69;5087491;28;20501;-73
2021/12/15 08:55:07;;;;;;;10.97;8.70;;;;;;;-143.84;88.73;44833.91;5086649;28;20455;-72
2021/12/15 08:57:34;;;;;;;13.80;8.97;;;;;;;-143.84;89.32;44809.16;5085414;28;20454;-72
2021/12/15 09:00:05;;;;;;;12.77;9.20;;;;;;;-143.84;89.12;44833.91;5086823;28;20465;-72
2021/12/15 09:02:32;;;;;;;11.87;9.10;;;;;;;-143.84;89.10;44742.50;5090910;28;20440;-72
2021/12/15 09:04:59;;;;;;;12.37;9.57;;;;;;;-143.84;89.64;44630.19;5089105;28;20810;-72
2021/12/15 09:07:27;;;;;;;13.83;9.57;;;;;;;-143.84;89.16;44742.50;5087013;28;20462;-72
2021/12/15 09:09:54;;;;;;;12.20;8.67;;;;;;;-143.84;89.10;44712.06;5085402;28;20511;-72
2021/12/15 09:12:21;;;;;;;11.83;9.13;;;;;;;-143.84;89.44;44746.31;5086681;28;20867;-72
2021/12/15 09:14:49;;;;;;;12.03;8.43;;;;;;;-143.84;89.45;44790.13;5086918;28;20474;-74
2021/12/15 09:17:17;;;;;;;11.77;8.57;;;;;;;-143.84;89.19;44740.59;5082370;28;20448;-73
2021/12/15 09:19:45;;;;;;;12.60;8.70;;;;;;;-143.84;88.95;44833.91;5082047;28;20456;-73
2021/12/15 09:22:12;;;;;;;10.40;8.20;;;;;;;-143.84;88.81;44801.53;5086745;28;21372;-73
2021/12/15 09:24:40;;;;;;;12.63;8.60;;;;;;;-143.84;89.15;44797.72;5087430;28;21226;-73
2021/12/15 09:27:07;;;;;;;11.23;7.87;;;;;;;-143.84;88.22;44904.34;5087635;28;20452;-73
2021/12/15 09:29:34;;;;;;;9.47;8.03;;;;;;;-143.84;88.69;44847.22;5086997;28;20498;-73
2021/12/15 09:32:01;;;;;;;10.57;8.50;;;;;;;-143.84;88.85;44820.56;5086351;28;20440;-73
2021/12/15 09:34:30;;;;;;;11.73;8.47;;;;;;;-143.84;88.62;44780.59;5086751;28;20470;-72
2021/12/15 09:36:58;;;;;;;10.80;7.67;;;;;;;-143.84;88.30;44877.69;5086735;28;20455;-72
2021/12/15 09:39:26;;;;;;;11.53;8.97;;;;;;;-143.84;88.60;44892.94;5086477;28;20440;-72
2021/12/15 09:41:53;;;;;;;9.47;7.80;;;;;;;-143.84;88.05;44944.34;5086088;28;20448;-72
2021/12/15 09:44:24;;;;;;;10.70;8.10;;;;;;;-143.84;88.04;44950.06;5086575;28;20483;-72
2021/12/15 09:47:16;;;;;;;10.20;7.30;;;;;;;-143.84;87.71;44957.66;5086435;28;20446;-72
2021/12/15 10:03:47;;;;;;;7.97;7.00;;;;;;;-143.84;88.13;44894.84;5086292;28;20447;-72
2021/12/15 10:06:30;;;;;;;11.60;8.50;;;;;;;-143.84;88.61;44845.31;5086379;28;20448;-72
2021/12/15 10:11:55;;;;;;;7.23;6.53;;;;;;;-143.84;88.00;44929.09;5087116;28;20428;-73
2021/12/15 10:19:58;;;;;;;13.03;9.03;;;;;;;-143.84;88.32;44910.06;5090644;28;20492;-73
2021/12/15 10:22:34;;;;;;;9.70;8.37;;;;;;;-143.84;87.94;44898.66;5090312;28;21003;-73
2021/12/15 10:25:05;;;;;;;8.80;7.40;;;;;;;-143.84;87.82;44942.44;5089970;28;20568;-73
2021/12/15 10:27:37;;;;;;;11.27;7.80;;;;;;;-143.84;87.02;45026.22;5090110;28;20444;-73
2021/12/15 10:30:16;;;;;;;10.57;7.30;;;;;;;-143.84;87.12;45026.22;5090306;28;20459;-73
2021/12/15 10:32:45;;;;;;;11.33;7.50;;;;;;;-143.84;87.99;44940.53;5089697;28;20435;-73
2021/12/15 10:35:17;;;;;;;8.60;7.40;;;;;;;-143.84;88.22;44919.59;5089804;28;20458;-73
2021/12/15 10:38:18;;;;;;;9.47;7.20;;;;;;;-143.84;88.61;44839.63;5089974;28;20436;-73
2021/12/15 10:40:47;;;;;;;7.90;7.10;;;;;;;-143.84;88.98;44769.16;5090172;28;20967;-73
2021/12/15 10:43:15;;;;;;;8.20;7.30;;;;;;;-143.84;89.42;44767.25;5089739;28;20513;-73
2021/12/15 10:45:46;;;;;;;9.23;7.90;;;;;;;-143.84;89.47;44675.88;5089714;28;21012;-73
2021/12/15 10:48:24;;;;;;;9.73;7.27;;;;;;;-143.84;89.41;44666.34;5089984;28;20946;-73
2021/12/15 10:50:52;;;;;;;8.93;7.33;;;;;;;-143.84;89.78;44588.28;5089475;28;20444;-73
2021/12/15 10:53:33;;;;;;;8.73;7.83;;;;;;;-143.84;90.23;44601.63;5089497;28;20444;-73
2021/12/15 10:56:02;;;;;;;11.13;8.20;;;;;;;-143.84;89.96;44641.59;5089689;28;20965;-73
2021/12/15 10:58:35;;;;;;;10.33;6.87;;;;;;;-143.84;90.14;44668.25;5089731;28;20466;-73
2021/12/15 11:01:06;;;;;;;10.00;7.00;;;;;;;-143.84;89.98;44552.13;5089509;28;20515;-73
2021/12/15 11:03:36;;;;;;;14.10;8.97;;;;;;;-143.84;90.11;44586.38;5088861;28;20462;-73
2021/12/15 11:06:20;;;;;;;8.60;6.73;;;;;;;-143.84;90.12;44557.84;5089269;28;20501;-73
2021/12/15 11:08:49;;;;;;;8.67;7.33;;;;;;;-143.84;89.75;44620.66;5089317;28;20436;-73
2021/12/15 11:11:29;;;;;;;10.50;8.33;;;;;;;-143.84;89.77;44630.19;5089408;28;21016;-73
2021/12/15 11:13:56;;;;;;;14.93;9.23;;;;;;;-143.84;90.18;44590.19;5089445;28;20547;-73
2021/12/15 11:16:31;;;;;;;10.30;7.90;;;;;;;-143.84;90.50;44514.03;5089255;28;20488;-73
2021/12/15 11:18:59;;;;;;;9.53;7.50;;;;;;;-143.84;90.03;44622.56;5089365;28;20470;-73
2021/12/15 11:21:32;;;;;;;12.47;8.83;;;;;;;-143.84;89.41;44698.72;5089466;28;20793;-73
2021/12/15 11:24:01;;;;;;;9.97;8.03;;;;;;;-143.84;89.77;44590.19;5089262;28;21408;-73
2021/12/15 11:26:29;;;;;;;12.57;8.77;;;;;;;-143.84;89.87;44544.50;5089357;28;20516;-73
2021/12/15 11:28:56;;;;;;;11.80;8.77;;;;;;;-143.84;89.58;44624.47;5089463;28;20907;-73
2021/12/15 11:31:26;;;;;;;10.60;8.37;;;;;;;-143.84;89.69;44702.53;5089151;28;20446;-73
2021/12/15 11:33:56;;;;;;;12.60;9.40;;;;;;;-143.84;89.16;44679.69;5089154;28;20426;-73
2021/12/15 11:36:26;;;;;;;13.30;9.10;;;;;;;-143.84;89.65;44681.59;5089150;28;20501;-73
2021/12/15 11:38:56;;;;;;;13.20;9.50;;;;;;;-143.84;88.92;44767.25;5089224;28;20462;-73
2021/12/15 11:41:29;;;;;;;9.67;7.53;;;;;;;-143.84;89.61;44744.41;5089166;28;20432;-73
2021/12/15 11:43:58;;;;;;;9.00;7.40;;;;;;;-143.84;88.99;44801.53;5088981;28;20838;-73
2021/12/15 11:46:30;;;;;;;13.73;8.37;;;;;;;-143.84;88.87;44832.00;5089048;28;20440;-73
2021/12/15 11:49:02;;;;;;;10.60;8.10;;;;;;;-143.84;88.81;44860.56;5089074;28;20444;-73
2021/12/15 11:51:36;;;;;;;14.57;8.67;;;;;;;-143.84;88.66;44860.56;5088965;28;20965;-73
2021/12/15 11:54:05;;;;;;;12.83;9.43;;;;;;;-143.84;89.18;44772.97;5089007;28;20423;-73
2021/12/15 11:56:36;;;;;;;11.60;9.60;;;;;;;-143.84;89.53;44805.34;5089148;28;21347;-73
2021/12/15 11:59:20;;;;;;;14.40;9.23;;;;;;;-143.84;89.31;44763.47;5088592;28;20443;-73
2021/12/15 12:01:52;;;;;;;18.47;9.83;;;;;;;-143.84;88.98;44753.94;5089172;28;20512;-73
2021/12/15 12:04:33;;;;;;;13.23;8.80;;;;;;;-143.84;89.27;44759.66;5088700;28;20492;-73
2021/12/15 12:07:22;;;;;;;14.83;9.60;;;;;;;-143.84;89.47;44772.97;5088850;28;20438;-73
2021/12/15 12:09:52;;;;;;;11.93;9.20;;;;;;;-143.84;89.52;44687.28;5087543;28;20799;-73
2021/12/15 12:12:24;;;;;;;11.73;8.40;;;;;;;-143.84;89.44;44649.22;5088639;28;20435;-73
2021/12/15 12:14:51;;;;;;;14.73;10.37;;;;;;;-143.84;89.24;44725.38;5088957;28;20487;-73
2021/12/15 12:17:22;;;;;;;12.80;9.90;;;;;;;-143.84;89.44;44793.91;5092801;28;20442;-73
2021/12/15 12:19:55;;;;;;;15.70;10.17;;;;;;;-143.84;89.84;44733.00;5092576;28;20451;-73
2021/12/15 12:22:26;;;;;;;16.83;10.73;;;;;;;-143.84;89.46;44736.81;5092476;28;20440;-73